sensor_id;sensor_type;location;lat;lon;timestamp;P1;durP1;ratioP1;P2;durP2;ratioP2
32946;SDS011;54465;51.230;22.504;2023-03-12T00:02:25;5.63;;;3.33;;
32946;SDS011;54465;51.230;22.504;2023-03-12T00:07:26;4.68;;;3.28;;
32946;SDS011;54465;51.230;22.504;2023-03-12T00:12:26;6.80;;;3.17;;
32946;SDS011;54465;51.230;22.504;2023-03-12T00:17:27;6.43;;;3.65;;
32946;SDS011;54465;51.230;22.504;2023-03-12T00:22:29;5.28;;;3.25;;
32946;SDS011;54465;51.230;22.504;2023-03-12T00:27:29;5.90;;;2.92;;
32946;SDS011;54465;51.230;22.504;2023-03-12T00:32:33;6.05;;;3.45;;
32946;SDS011;54465;51.230;22.504;2023-03-12T00:37:34;3.95;;;3.10;;
32946;SDS011;54465;51.230;22.504;2023-03-12T00:42:36;5.05;;;3.63;;
32946;SDS011;54465;51.230;22.504;2023-03-12T00:47:36;5.68;;;2.88;;
32946;SDS011;54465;51.230;22.504;2023-03-12T00:52:37;5.68;;;3.17;;
32946;SDS011;54465;51.230;22.504;2023-03-12T00:57:37;6.50;;;3.42;;
32946;SDS011;54465;51.230;22.504;2023-03-12T01:02:38;5.38;;;3.28;;
32946;SDS011;54465;51.230;22.504;2023-03-12T01:07:39;4.63;;;2.35;;
32946;SDS011;54465;51.230;22.504;2023-03-12T01:12:40;5.00;;;3.40;;
32946;SDS011;54465;51.230;22.504;2023-03-12T01:17:42;4.88;;;3.10;;
32946;SDS011;54465;51.230;22.504;2023-03-12T01:22:42;4.82;;;2.63;;
32946;SDS011;54465;51.230;22.504;2023-03-12T01:27:43;6.53;;;3.28;;
32946;SDS011;54465;51.230;22.504;2023-03-12T01:32:43;5.20;;;3.40;;
32946;SDS011;54465;51.230;22.504;2023-03-12T01:37:44;7.18;;;3.53;;
32946;SDS011;54465;51.230;22.504;2023-03-12T01:42:52;8.23;;;3.83;;
32946;SDS011;54465;51.230;22.504;2023-03-12T01:47:53;6.10;;;3.25;;
32946;SDS011;54465;51.230;22.504;2023-03-12T01:52:54;6.70;;;3.03;;
32946;SDS011;54465;51.230;22.504;2023-03-12T01:57:54;5.70;;;3.58;;
32946;SDS011;54465;51.230;22.504;2023-03-12T02:02:57;8.32;;;3.63;;
32946;SDS011;54465;51.230;22.504;2023-03-12T02:08:03;10.33;;;4.00;;
32946;SDS011;54465;51.230;22.504;2023-03-12T02:13:04;6.40;;;3.55;;
32946;SDS011;54465;51.230;22.504;2023-03-12T02:18:06;6.95;;;4.03;;
32946;SDS011;54465;51.230;22.504;2023-03-12T02:23:09;11.85;;;6.13;;
32946;SDS011;54465;51.230;22.504;2023-03-12T02:28:11;9.60;;;5.88;;
32946;SDS011;54465;51.230;22.504;2023-03-12T02:33:13;8.80;;;5.05;;
32946;SDS011;54465;51.230;22.504;2023-03-12T02:43:34;8.55;;;4.07;;
32946;SDS011;54465;51.230;22.504;2023-03-12T02:48:34;7.88;;;4.63;;
32946;SDS011;54465;51.230;22.504;2023-03-12T02:53:35;8.57;;;4.72;;
32946;SDS011;54465;51.230;22.504;2023-03-12T02:58:36;7.72;;;4.90;;
32946;SDS011;54465;51.230;22.504;2023-03-12T03:03:36;8.77;;;4.85;;
32946;SDS011;54465;51.230;22.504;2023-03-12T03:08:37;8.32;;;4.72;;
32946;SDS011;54465;51.230;22.504;2023-03-12T03:13:38;9.68;;;5.25;;
32946;SDS011;54465;51.230;22.504;2023-03-12T03:18:39;9.05;;;4.95;;
32946;SDS011;54465;51.230;22.504;2023-03-12T03:23:39;9.93;;;5.90;;
32946;SDS011;54465;51.230;22.504;2023-03-12T03:28:40;9.35;;;5.22;;
32946;SDS011;54465;51.230;22.504;2023-03-12T03:33:41;7.68;;;5.05;;
32946;SDS011;54465;51.230;22.504;2023-03-12T03:38:43;7.88;;;5.25;;
32946;SDS011;54465;51.230;22.504;2023-03-12T03:43:48;11.52;;;6.75;;
32946;SDS011;54465;51.230;22.504;2023-03-12T03:48:52;8.50;;;5.43;;
32946;SDS011;54465;51.230;22.504;2023-03-12T03:53:54;9.75;;;5.32;;
32946;SDS011;54465;51.230;22.504;2023-03-12T03:58:55;9.95;;;5.90;;
32946;SDS011;54465;51.230;22.504;2023-03-12T04:03:56;8.05;;;6.07;;
32946;SDS011;54465;51.230;22.504;2023-03-12T04:08:57;8.55;;;5.70;;
32946;SDS011;54465;51.230;22.504;2023-03-12T04:13:59;11.95;;;6.53;;
32946;SDS011;54465;51.230;22.504;2023-03-12T04:19:03;9.63;;;5.90;;
32946;SDS011;54465;51.230;22.504;2023-03-12T04:24:05;10.50;;;7.05;;
32946;SDS011;54465;51.230;22.504;2023-03-12T04:29:08;9.90;;;6.22;;
32946;SDS011;54465;51.230;22.504;2023-03-12T04:34:09;8.90;;;5.82;;
32946;SDS011;54465;51.230;22.504;2023-03-12T04:39:10;13.00;;;7.75;;
32946;SDS011;54465;51.230;22.504;2023-03-12T04:44:11;10.43;;;7.00;;
32946;SDS011;54465;51.230;22.504;2023-03-12T04:49:13;8.88;;;6.55;;
32946;SDS011;54465;51.230;22.504;2023-03-12T04:54:15;11.43;;;6.22;;
32946;SDS011;54465;51.230;22.504;2023-03-12T04:59:16;11.82;;;6.40;;
32946;SDS011;54465;51.230;22.504;2023-03-12T05:04:18;11.77;;;6.20;;
32946;SDS011;54465;51.230;22.504;2023-03-12T05:09:19;9.10;;;6.00;;
32946;SDS011;54465;51.230;22.504;2023-03-12T05:14:21;8.70;;;5.78;;
32946;SDS011;54465;51.230;22.504;2023-03-12T05:19:22;9.23;;;6.00;;
32946;SDS011;54465;51.230;22.504;2023-03-12T05:24:23;8.00;;;5.75;;
32946;SDS011;54465;51.230;22.504;2023-03-12T05:29:24;8.82;;;5.28;;
32946;SDS011;54465;51.230;22.504;2023-03-12T05:34:26;9.65;;;5.60;;
32946;SDS011;54465;51.230;22.504;2023-03-12T05:39:29;7.80;;;5.53;;
32946;SDS011;54465;51.230;22.504;2023-03-12T05:44:34;7.80;;;5.70;;
32946;SDS011;54465;51.230;22.504;2023-03-12T05:49:35;8.10;;;5.05;;
32946;SDS011;54465;51.230;22.504;2023-03-12T05:54:36;8.05;;;5.15;;
32946;SDS011;54465;51.230;22.504;2023-03-12T05:59:38;9.07;;;5.80;;
32946;SDS011;54465;51.230;22.504;2023-03-12T06:04:41;8.13;;;5.85;;
32946;SDS011;54465;51.230;22.504;2023-03-12T06:09:42;8.10;;;5.25;;
32946;SDS011;54465;51.230;22.504;2023-03-12T06:14:44;7.38;;;4.95;;
32946;SDS011;54465;51.230;22.504;2023-03-12T06:19:45;7.63;;;5.10;;
32946;SDS011;54465;51.230;22.504;2023-03-12T06:24:51;8.10;;;5.35;;
32946;SDS011;54465;51.230;22.504;2023-03-12T06:29:52;9.00;;;5.20;;
32946;SDS011;54465;51.230;22.504;2023-03-12T06:34:53;9.68;;;5.53;;
32946;SDS011;54465;51.230;22.504;2023-03-12T06:39:53;7.30;;;4.68;;
32946;SDS011;54465;51.230;22.504;2023-03-12T06:44:53;8.55;;;5.15;;
32946;SDS011;54465;51.230;22.504;2023-03-12T06:49:54;8.55;;;5.50;;
32946;SDS011;54465;51.230;22.504;2023-03-12T06:54:54;10.13;;;5.25;;
32946;SDS011;54465;51.230;22.504;2023-03-12T06:59:55;9.93;;;6.15;;
32946;SDS011;54465;51.230;22.504;2023-03-12T07:04:55;7.93;;;5.47;;
32946;SDS011;54465;51.230;22.504;2023-03-12T07:09:57;9.98;;;5.57;;
32946;SDS011;54465;51.230;22.504;2023-03-12T07:14:58;10.82;;;6.05;;
32946;SDS011;54465;51.230;22.504;2023-03-12T07:19:59;9.40;;;5.45;;
32946;SDS011;54465;51.230;22.504;2023-03-12T07:24:59;8.18;;;5.07;;
32946;SDS011;54465;51.230;22.504;2023-03-12T07:30:00;6.25;;;4.72;;
32946;SDS011;54465;51.230;22.504;2023-03-12T07:35:00;7.25;;;4.78;;
32946;SDS011;54465;51.230;22.504;2023-03-12T07:40:01;7.53;;;4.60;;
32946;SDS011;54465;51.230;22.504;2023-03-12T07:45:04;13.23;;;6.40;;
32946;SDS011;54465;51.230;22.504;2023-03-12T07:50:07;17.33;;;9.07;;
32946;SDS011;54465;51.230;22.504;2023-03-12T07:55:08;11.60;;;7.20;;
32946;SDS011;54465;51.230;22.504;2023-03-12T08:00:09;14.23;;;7.65;;
32946;SDS011;54465;51.230;22.504;2023-03-12T08:05:13;8.05;;;5.97;;
32946;SDS011;54465;51.230;22.504;2023-03-12T08:10:13;9.93;;;5.35;;
32946;SDS011;54465;51.230;22.504;2023-03-12T08:15:14;7.53;;;4.72;;
32946;SDS011;54465;51.230;22.504;2023-03-12T08:20:14;11.57;;;7.13;;
32946;SDS011;54465;51.230;22.504;2023-03-12T08:25:15;14.05;;;7.28;;
32946;SDS011;54465;51.230;22.504;2023-03-12T08:30:17;6.80;;;5.25;;
32946;SDS011;54465;51.230;22.504;2023-03-12T08:35:18;8.85;;;5.20;;
32946;SDS011;54465;51.230;22.504;2023-03-12T08:40:18;9.85;;;5.25;;
32946;SDS011;54465;51.230;22.504;2023-03-12T08:45:19;8.07;;;5.07;;
32946;SDS011;54465;51.230;22.504;2023-03-12T08:50:19;8.30;;;5.47;;
32946;SDS011;54465;51.230;22.504;2023-03-12T08:55:21;7.70;;;4.55;;
32946;SDS011;54465;51.230;22.504;2023-03-12T09:00:23;12.15;;;5.00;;
32946;SDS011;54465;51.230;22.504;2023-03-12T09:05:24;7.90;;;4.93;;
32946;SDS011;54465;51.230;22.504;2023-03-12T09:10:25;7.47;;;4.07;;
32946;SDS011;54465;51.230;22.504;2023-03-12T09:15:26;7.05;;;5.10;;
32946;SDS011;54465;51.230;22.504;2023-03-12T09:20:26;8.45;;;5.22;;
32946;SDS011;54465;51.230;22.504;2023-03-12T09:25:27;5.90;;;4.32;;
32946;SDS011;54465;51.230;22.504;2023-03-12T09:30:27;9.80;;;5.22;;
32946;SDS011;54465;51.230;22.504;2023-03-12T09:35:29;6.80;;;4.95;;
32946;SDS011;54465;51.230;22.504;2023-03-12T09:40:31;8.98;;;4.30;;
32946;SDS011;54465;51.230;22.504;2023-03-12T09:45:37;8.45;;;4.15;;
32946;SDS011;54465;51.230;22.504;2023-03-12T09:50:44;9.50;;;5.80;;
32946;SDS011;54465;51.230;22.504;2023-03-12T09:55:46;16.52;;;7.97;;
32946;SDS011;54465;51.230;22.504;2023-03-12T10:00:48;10.52;;;6.05;;
32946;SDS011;54465;51.230;22.504;2023-03-12T10:05:59;7.85;;;4.82;;
32946;SDS011;54465;51.230;22.504;2023-03-12T10:16:10;10.20;;;5.28;;
32946;SDS011;54465;51.230;22.504;2023-03-12T10:26:43;9.52;;;4.88;;
32946;SDS011;54465;51.230;22.504;2023-03-12T10:31:50;11.93;;;4.35;;
32946;SDS011;54465;51.230;22.504;2023-03-12T10:36:57;10.65;;;5.75;;
32946;SDS011;54465;51.230;22.504;2023-03-12T10:41:58;7.30;;;4.50;;
32946;SDS011;54465;51.230;22.504;2023-03-12T10:47:04;7.13;;;5.15;;
32946;SDS011;54465;51.230;22.504;2023-03-12T10:57:18;9.30;;;3.85;;
32946;SDS011;54465;51.230;22.504;2023-03-12T11:07:38;6.68;;;2.47;;
32946;SDS011;54465;51.230;22.504;2023-03-12T11:13:20;4.95;;;2.33;;
32946;SDS011;54465;51.230;22.504;2023-03-12T11:18:26;6.60;;;3.20;;
32946;SDS011;54465;51.230;22.504;2023-03-12T11:23:34;5.88;;;2.90;;
32946;SDS011;54465;51.230;22.504;2023-03-12T11:34:21;4.05;;;2.13;;
32946;SDS011;54465;51.230;22.504;2023-03-12T11:39:28;5.97;;;2.53;;
32946;SDS011;54465;51.230;22.504;2023-03-12T11:44:38;5.32;;;2.70;;
32946;SDS011;54465;51.230;22.504;2023-03-12T11:54:50;6.35;;;1.92;;
32946;SDS011;54465;51.230;22.504;2023-03-12T12:00:11;3.38;;;2.33;;
32946;SDS011;54465;51.230;22.504;2023-03-12T12:11:13;6.72;;;2.50;;
32946;SDS011;54465;51.230;22.504;2023-03-12T12:16:30;5.32;;;2.60;;
32946;SDS011;54465;51.230;22.504;2023-03-12T12:22:35;3.38;;;1.98;;
32946;SDS011;54465;51.230;22.504;2023-03-12T12:27:24;6.63;;;2.20;;
32946;SDS011;54465;51.230;22.504;2023-03-12T12:32:31;4.78;;;2.17;;
32946;SDS011;54465;51.230;22.504;2023-03-12T12:37:47;5.00;;;1.90;;
32946;SDS011;54465;51.230;22.504;2023-03-12T12:42:58;3.03;;;1.65;;
32946;SDS011;54465;51.230;22.504;2023-03-12T12:48:07;4.60;;;1.98;;
32946;SDS011;54465;51.230;22.504;2023-03-12T13:04:01;3.40;;;1.77;;
32946;SDS011;54465;51.230;22.504;2023-03-12T13:09:13;5.63;;;2.35;;
32946;SDS011;54465;51.230;22.504;2023-03-12T13:14:19;5.88;;;1.98;;
32946;SDS011;54465;51.230;22.504;2023-03-12T13:19:23;4.82;;;2.40;;
32946;SDS011;54465;51.230;22.504;2023-03-12T13:24:28;4.63;;;2.40;;
32946;SDS011;54465;51.230;22.504;2023-03-12T13:34:42;3.42;;;1.98;;
32946;SDS011;54465;51.230;22.504;2023-03-12T13:39:44;3.85;;;1.52;;
32946;SDS011;54465;51.230;22.504;2023-03-12T13:44:45;7.25;;;1.80;;
32946;SDS011;54465;51.230;22.504;2023-03-12T13:50:31;6.47;;;2.40;;
32946;SDS011;54465;51.230;22.504;2023-03-12T14:00:17;4.93;;;3.35;;
32946;SDS011;54465;51.230;22.504;2023-03-12T14:05:19;3.60;;;1.63;;
32946;SDS011;54465;51.230;22.504;2023-03-12T14:10:26;2.78;;;1.70;;
32946;SDS011;54465;51.230;22.504;2023-03-12T14:20:59;3.28;;;1.95;;
32946;SDS011;54465;51.230;22.504;2023-03-12T14:26:02;5.80;;;2.53;;
32946;SDS011;54465;51.230;22.504;2023-03-12T14:31:08;3.60;;;2.00;;
32946;SDS011;54465;51.230;22.504;2023-03-12T14:36:13;5.53;;;2.42;;
32946;SDS011;54465;51.230;22.504;2023-03-12T14:41:20;9.77;;;3.08;;
32946;SDS011;54465;51.230;22.504;2023-03-12T14:46:23;6.03;;;2.55;;
32946;SDS011;54465;51.230;22.504;2023-03-12T14:51:25;8.23;;;3.28;;
32946;SDS011;54465;51.230;22.504;2023-03-12T14:56:27;8.38;;;3.58;;
32946;SDS011;54465;51.230;22.504;2023-03-12T15:01:34;9.52;;;4.68;;
32946;SDS011;54465;51.230;22.504;2023-03-12T15:06:45;10.80;;;4.97;;
32946;SDS011;54465;51.230;22.504;2023-03-12T15:11:51;9.45;;;4.28;;
32946;SDS011;54465;51.230;22.504;2023-03-12T15:16:55;7.53;;;4.20;;
32946;SDS011;54465;51.230;22.504;2023-03-12T15:21:56;6.57;;;2.97;;
32946;SDS011;54465;51.230;22.504;2023-03-12T15:26:57;6.75;;;3.05;;
32946;SDS011;54465;51.230;22.504;2023-03-12T15:32:37;8.05;;;4.20;;
32946;SDS011;54465;51.230;22.504;2023-03-12T15:37:37;9.57;;;4.50;;
32946;SDS011;54465;51.230;22.504;2023-03-12T15:42:40;9.40;;;3.92;;
32946;SDS011;54465;51.230;22.504;2023-03-12T15:47:42;8.25;;;3.88;;
32946;SDS011;54465;51.230;22.504;2023-03-12T15:58:30;9.48;;;4.28;;
32946;SDS011;54465;51.230;22.504;2023-03-12T16:03:32;10.48;;;4.82;;
32946;SDS011;54465;51.230;22.504;2023-03-12T16:08:35;9.23;;;3.92;;
32946;SDS011;54465;51.230;22.504;2023-03-12T16:13:37;16.70;;;8.90;;
32946;SDS011;54465;51.230;22.504;2023-03-12T16:18:38;24.67;;;11.48;;
32946;SDS011;54465;51.230;22.504;2023-03-12T16:23:38;12.23;;;6.30;;
32946;SDS011;54465;51.230;22.504;2023-03-12T16:28:39;10.68;;;5.65;;
32946;SDS011;54465;51.230;22.504;2023-03-12T16:33:40;13.27;;;6.45;;
32946;SDS011;54465;51.230;22.504;2023-03-12T16:38:41;11.35;;;6.10;;
32946;SDS011;54465;51.230;22.504;2023-03-12T16:43:44;10.32;;;5.88;;
32946;SDS011;54465;51.230;22.504;2023-03-12T16:48:49;12.40;;;6.55;;
32946;SDS011;54465;51.230;22.504;2023-03-12T16:53:51;18.83;;;8.93;;
32946;SDS011;54465;51.230;22.504;2023-03-12T16:58:52;19.30;;;8.50;;
32946;SDS011;54465;51.230;22.504;2023-03-12T17:03:53;13.27;;;7.57;;
32946;SDS011;54465;51.230;22.504;2023-03-12T17:08:54;15.75;;;7.93;;
32946;SDS011;54465;51.230;22.504;2023-03-12T17:13:59;13.95;;;8.68;;
32946;SDS011;54465;51.230;22.504;2023-03-12T17:19:00;14.52;;;7.75;;
32946;SDS011;54465;51.230;22.504;2023-03-12T17:24:01;28.85;;;12.07;;
32946;SDS011;54465;51.230;22.504;2023-03-12T17:29:01;25.27;;;10.10;;
32946;SDS011;54465;51.230;22.504;2023-03-12T17:34:02;25.35;;;11.82;;
32946;SDS011;54465;51.230;22.504;2023-03-12T17:39:03;31.08;;;12.65;;
32946;SDS011;54465;51.230;22.504;2023-03-12T17:44:03;21.45;;;9.60;;
32946;SDS011;54465;51.230;22.504;2023-03-12T17:49:06;21.23;;;10.65;;
32946;SDS011;54465;51.230;22.504;2023-03-12T17:54:06;19.17;;;8.45;;
32946;SDS011;54465;51.230;22.504;2023-03-12T17:59:08;30.85;;;16.40;;
32946;SDS011;54465;51.230;22.504;2023-03-12T18:04:09;19.52;;;12.07;;
32946;SDS011;54465;51.230;22.504;2023-03-12T18:09:09;17.48;;;11.10;;
32946;SDS011;54465;51.230;22.504;2023-03-12T18:14:10;15.45;;;6.82;;
32946;SDS011;54465;51.230;22.504;2023-03-12T18:19:10;16.77;;;7.95;;
32946;SDS011;54465;51.230;22.504;2023-03-12T18:24:11;15.75;;;7.50;;
32946;SDS011;54465;51.230;22.504;2023-03-12T18:29:11;16.05;;;8.05;;
32946;SDS011;54465;51.230;22.504;2023-03-12T18:34:12;16.02;;;7.85;;
32946;SDS011;54465;51.230;22.504;2023-03-12T18:39:12;10.30;;;5.47;;
32946;SDS011;54465;51.230;22.504;2023-03-12T18:44:13;10.77;;;5.25;;
32946;SDS011;54465;51.230;22.504;2023-03-12T18:49:13;10.20;;;5.00;;
32946;SDS011;54465;51.230;22.504;2023-03-12T18:54:14;11.20;;;5.25;;
32946;SDS011;54465;51.230;22.504;2023-03-12T18:59:14;13.63;;;6.90;;
32946;SDS011;54465;51.230;22.504;2023-03-12T19:04:16;13.75;;;7.00;;
32946;SDS011;54465;51.230;22.504;2023-03-12T19:09:17;11.48;;;5.45;;
32946;SDS011;54465;51.230;22.504;2023-03-12T19:14:18;15.45;;;6.25;;
32946;SDS011;54465;51.230;22.504;2023-03-12T19:19:18;18.67;;;7.88;;
32946;SDS011;54465;51.230;22.504;2023-03-12T19:24:20;11.18;;;5.40;;
32946;SDS011;54465;51.230;22.504;2023-03-12T19:29:20;8.90;;;4.50;;
32946;SDS011;54465;51.230;22.504;2023-03-12T19:34:21;11.50;;;5.72;;
32946;SDS011;54465;51.230;22.504;2023-03-12T19:39:22;11.65;;;5.57;;
32946;SDS011;54465;51.230;22.504;2023-03-12T19:44:22;7.97;;;4.70;;
32946;SDS011;54465;51.230;22.504;2023-03-12T19:49:23;11.55;;;5.50;;
32946;SDS011;54465;51.230;22.504;2023-03-12T19:54:23;9.80;;;5.25;;
32946;SDS011;54465;51.230;22.504;2023-03-12T19:59:25;11.77;;;5.40;;
32946;SDS011;54465;51.230;22.504;2023-03-12T20:04:26;13.07;;;7.07;;
32946;SDS011;54465;51.230;22.504;2023-03-12T20:09:26;17.25;;;7.72;;
32946;SDS011;54465;51.230;22.504;2023-03-12T20:14:27;13.65;;;6.57;;
32946;SDS011;54465;51.230;22.504;2023-03-12T20:19:28;14.90;;;8.20;;
32946;SDS011;54465;51.230;22.504;2023-03-12T20:24:28;15.85;;;7.72;;
32946;SDS011;54465;51.230;22.504;2023-03-12T20:29:29;20.98;;;10.05;;
32946;SDS011;54465;51.230;22.504;2023-03-12T20:34:29;22.42;;;9.10;;
32946;SDS011;54465;51.230;22.504;2023-03-12T20:39:29;18.65;;;8.68;;
32946;SDS011;54465;51.230;22.504;2023-03-12T20:44:30;14.35;;;7.32;;
32946;SDS011;54465;51.230;22.504;2023-03-12T20:49:30;12.80;;;7.43;;
32946;SDS011;54465;51.230;22.504;2023-03-12T20:54:31;13.20;;;6.00;;
32946;SDS011;54465;51.230;22.504;2023-03-12T20:59:31;11.90;;;6.30;;
32946;SDS011;54465;51.230;22.504;2023-03-12T21:04:32;15.23;;;6.55;;
32946;SDS011;54465;51.230;22.504;2023-03-12T21:09:32;9.18;;;5.55;;
32946;SDS011;54465;51.230;22.504;2023-03-12T21:14:33;7.80;;;4.90;;
32946;SDS011;54465;51.230;22.504;2023-03-12T21:19:34;9.98;;;5.05;;
32946;SDS011;54465;51.230;22.504;2023-03-12T21:24:34;9.75;;;5.22;;
32946;SDS011;54465;51.230;22.504;2023-03-12T21:29:35;12.48;;;6.70;;
32946;SDS011;54465;51.230;22.504;2023-03-12T21:34:35;11.07;;;7.18;;
32946;SDS011;54465;51.230;22.504;2023-03-12T21:39:37;13.93;;;7.03;;
32946;SDS011;54465;51.230;22.504;2023-03-12T21:44:37;17.52;;;7.90;;
32946;SDS011;54465;51.230;22.504;2023-03-12T21:49:38;10.63;;;6.28;;
32946;SDS011;54465;51.230;22.504;2023-03-12T21:54:38;13.40;;;6.82;;
32946;SDS011;54465;51.230;22.504;2023-03-12T21:59:39;17.45;;;7.18;;
32946;SDS011;54465;51.230;22.504;2023-03-12T22:04:39;11.80;;;6.50;;
32946;SDS011;54465;51.230;22.504;2023-03-12T22:09:40;16.70;;;7.07;;
32946;SDS011;54465;51.230;22.504;2023-03-12T22:14:40;11.73;;;6.53;;
32946;SDS011;54465;51.230;22.504;2023-03-12T22:19:41;13.38;;;7.22;;
32946;SDS011;54465;51.230;22.504;2023-03-12T22:24:41;14.48;;;6.90;;
32946;SDS011;54465;51.230;22.504;2023-03-12T22:29:42;15.75;;;8.15;;
32946;SDS011;54465;51.230;22.504;2023-03-12T22:34:42;14.07;;;7.85;;
32946;SDS011;54465;51.230;22.504;2023-03-12T22:39:43;14.32;;;7.47;;
32946;SDS011;54465;51.230;22.504;2023-03-12T22:44:44;13.00;;;6.65;;
32946;SDS011;54465;51.230;22.504;2023-03-12T22:49:44;11.77;;;6.90;;
32946;SDS011;54465;51.230;22.504;2023-03-12T22:54:45;11.55;;;7.30;;
32946;SDS011;54465;51.230;22.504;2023-03-12T22:59:46;11.88;;;6.90;;
32946;SDS011;54465;51.230;22.504;2023-03-12T23:04:47;13.00;;;7.25;;
32946;SDS011;54465;51.230;22.504;2023-03-12T23:09:47;12.23;;;6.97;;
32946;SDS011;54465;51.230;22.504;2023-03-12T23:14:48;13.02;;;7.78;;
32946;SDS011;54465;51.230;22.504;2023-03-12T23:19:48;13.90;;;6.88;;
32946;SDS011;54465;51.230;22.504;2023-03-12T23:24:49;13.73;;;7.55;;
32946;SDS011;54465;51.230;22.504;2023-03-12T23:29:49;13.30;;;7.53;;
32946;SDS011;54465;51.230;22.504;2023-03-12T23:34:50;12.98;;;6.53;;
32946;SDS011;54465;51.230;22.504;2023-03-12T23:39:51;10.63;;;6.70;;
32946;SDS011;54465;51.230;22.504;2023-03-12T23:44:51;11.20;;;7.35;;
32946;SDS011;54465;51.230;22.504;2023-03-12T23:49:52;12.73;;;7.25;;
32946;SDS011;54465;51.230;22.504;2023-03-12T23:54:52;13.68;;;7.43;;
32946;SDS011;54465;51.230;22.504;2023-03-12T23:59:52;14.70;;;8.13;;
